METAR AND TAF INFORMATION

METAR FOR SPZO
ADDS - METARS form results

(2256 UTC 01 December 2022)
Data provider http://aviationweather.gov/metar/data/
 
METAR text: SPZO 012230Z 33011KT 280V360 9999 NSC 21/00 Q1018 NOSIG RMK BIRD HAZARD RWY 10/28
Conditions at: SPZO (CUZCO/VELAZCO AS, PE) observed 2230 UTC 01 December 2022
Temperature: 21.0°C (70°F)
Dewpoint: 0.0°C (32°F) [RH = 25%]
Pressure (altimeter): 30.06 inches Hg (1018.0 mb)
Winds: from the NNW (330 degrees) at 13 MPH (11 knots; 5.7 m/s)
Visibility: 6 or more miles (10+ km)
Ceiling: at least 12,000 feet AGL
Clouds: sky clear below 12,000 feet AGL
Weather: no significant weather observed at this time

METAR text: SPZO 012200Z 29013KT 260V330 9999 NSC 23/M08 Q1017 NOSIG RMK TX25.7 BIRD HAZARD RWY 10/28 PP000
Conditions at: SPZO (CUZCO/VELAZCO AS, PE) observed 2200 UTC 01 December 2022
Temperature: 23.0°C (73°F)
Dewpoint: -8.0°C (18°F) [RH = 12%]
Pressure (altimeter): 30.03 inches Hg (1017.0 mb)
Winds: from the WNW (290 degrees) at 15 MPH (13 knots; 6.7 m/s)
Visibility: 6 or more miles (10+ km)
Ceiling: at least 12,000 feet AGL
Clouds: sky clear below 12,000 feet AGL
Weather: no significant weather observed at this time

Forecast for: SPZO (CUZCO/VELAZCO AS, PE)
Text: TAF SPZO 011700Z 0118/0218 VRB05KT 9999 FEW050 TX26/0119Z TN07/0211Z
Forecast period: 1800 UTC 01 December 2022 to 1800 UTC 02 December 2022
Forecast type: FROM: standard forecast or significant change
Winds: variable direction winds at 6 MPH (5 knots; 2.6 m/s)
Visibility: 6 or more miles (10+ km)
Ceiling: at least 12,000 feet AGL
Clouds: few clouds at 5000 feet AGL
Weather: no significant weather forecast for this period
Text: TEMPO 0118/0123 28015KT
Forecast period: 1800 to 2300 UTC 01 December 2022
Forecast type: TEMPORARY: The following changes expected for less than half the time period
Winds: from the W (280 degrees) at 17 MPH (15 knots; 7.7 m/s)
Visibility: missing
Ceiling: unknown
Clouds: missing
Weather: no significant weather forecast for this period

 

AIRPORT MAP

 

RUNWAY INFORMATION

Runway 10 Runway length 11146 ft Runway width 148 ft
Runway elevation 10860 ft Runway displaced threshold 0 ft Runway heading 96
Runway 28 Runway length 11146 ft Runway width 148 ft
Runway elevation 10702 ft Runway displaced threshold 0 ft Runway heading 276

 

AIRPORT FREQUENCIES

Type APP Name CUSCO APP Frequency 120.6 MHZ
Type ATIS Name ATIS Frequency 127 MHZ
Type GND Name GND Frequency 121.9 MHZ
Type TWR Name CUSCO TWR Frequency 118.1 MHZ

 

AIRPORT NEAR NAVIGATION AIDS

Type VOR-DME Name Urcos Frequency 115600 KHZ
Type VOR-DME Name Cusco Frequency 114900 KHZ